createdAt,value
2023-05-06T00:07:03.277Z,11.45
2023-05-06T00:22:06.191Z,11.34
2023-05-06T00:37:08.733Z,11.22
2023-05-06T00:52:11.697Z,11.15
2023-05-06T01:07:20.690Z,11.24
2023-05-06T01:22:26.165Z,11.30
2023-05-06T01:37:35.067Z,11.34
2023-05-06T01:52:37.763Z,11.35
2023-05-06T02:07:40.335Z,11.30
2023-05-06T02:22:43.584Z,11.24
2023-05-06T02:37:46.165Z,11.21
2023-05-06T02:52:48.981Z,11.20
2023-05-06T03:07:51.723Z,11.17
2023-05-06T03:22:55.568Z,11.12
2023-05-06T03:37:58.348Z,11.06
2023-05-06T03:53:01.017Z,11.04
2023-05-06T04:08:03.748Z,11.01
2023-05-06T04:23:06.985Z,10.69
2023-05-06T04:38:09.873Z,10.43
2023-05-06T04:53:12.864Z,10.34
2023-05-06T05:08:15.463Z,10.31
2023-05-06T05:23:18.313Z,10.38
2023-05-06T05:38:21.067Z,10.44
2023-05-06T05:53:23.847Z,10.54
2023-05-06T06:08:26.848Z,10.58
2023-05-06T06:23:29.784Z,10.50
2023-05-06T06:38:33.493Z,10.47
2023-05-06T06:53:36.183Z,10.40
2023-05-06T07:08:38.841Z,10.14
2023-05-06T07:23:41.607Z,9.96
2023-05-06T07:38:44.304Z,9.93
2023-05-06T07:53:46.975Z,9.79
2023-05-06T08:08:49.571Z,9.36
2023-05-06T08:23:52.855Z,9.26
2023-05-06T08:38:55.620Z,9.23
2023-05-06T08:54:02.472Z,9.31
2023-05-06T09:09:05.787Z,9.71
2023-05-06T09:24:10.139Z,9.74
2023-05-06T09:39:12.733Z,9.77
2023-05-06T09:54:17.423Z,10.23
2023-05-06T10:09:23.697Z,10.43
2023-05-06T10:24:34.519Z,10.32
2023-05-06T10:39:37.532Z,10.23
2023-05-06T10:54:51.599Z,10.23
2023-05-06T11:09:59.601Z,10.25
2023-05-06T11:25:06.518Z,10.50
2023-05-06T11:40:15.792Z,10.52
2023-05-06T11:55:18.680Z,10.61
2023-05-06T12:10:21.630Z,10.77
2023-05-06T12:25:24.465Z,11.00
2023-05-06T12:40:27.649Z,11.17
2023-05-06T12:55:32.201Z,11.17
2023-05-06T13:10:34.837Z,11.18
2023-05-06T13:25:47.974Z,11.47
2023-05-06T13:40:58.916Z,11.45
2023-05-06T13:56:01.916Z,11.62
2023-05-06T14:11:04.999Z,11.74
2023-05-06T14:26:08.032Z,11.88
2023-05-06T14:41:10.816Z,11.76
2023-05-06T14:56:13.435Z,11.46
2023-05-06T15:11:16.043Z,11.51
2023-05-06T15:26:18.810Z,11.46
2023-05-06T15:41:24.775Z,11.25
2023-05-06T15:56:27.385Z,11.20
2023-05-06T16:11:30.218Z,11.13
2023-05-06T16:26:34.612Z,11.11
2023-05-06T16:41:37.766Z,10.92
2023-05-06T16:56:51.505Z,10.95
2023-05-06T17:11:55.370Z,10.70
2023-05-06T17:26:58.331Z,10.60
2023-05-06T17:42:01.818Z,10.46
2023-05-06T17:57:04.511Z,10.23
2023-05-06T18:12:07.595Z,9.99
2023-05-06T18:27:10.199Z,9.82
2023-05-06T18:42:12.839Z,9.76
2023-05-06T18:57:15.489Z,9.67
2023-05-06T19:12:18.393Z,9.63
2023-05-06T19:27:21.292Z,9.51
2023-05-06T19:42:24.223Z,9.36
2023-05-06T19:57:27.676Z,9.28
2023-05-06T20:12:30.683Z,9.13
2023-05-06T20:27:33.357Z,9.08
2023-05-06T20:42:36.536Z,9.02
2023-05-06T20:57:43.778Z,8.93
2023-05-06T21:12:47.725Z,8.83
2023-05-06T21:27:50.707Z,8.73
2023-05-06T21:42:53.357Z,8.65
2023-05-06T21:57:56.365Z,8.60
2023-05-06T22:12:58.983Z,8.51
2023-05-06T22:28:02.266Z,8.48
2023-05-06T22:43:05.016Z,8.48
2023-05-06T22:58:07.736Z,8.52
2023-05-06T23:13:10.600Z,8.58
2023-05-06T23:28:13.547Z,8.59
2023-05-06T23:43:16.151Z,8.59
2023-05-06T23:58:18.904Z,8.59
